createdAt,value
2018-05-14T00:00:54.049Z,99.99
2018-05-14T00:01:54.080Z,99.99
2018-05-14T00:02:53.974Z,99.99
2018-05-14T00:03:54.108Z,99.99
2018-05-14T00:04:54.120Z,99.99
2018-05-14T00:05:54.126Z,99.99
2018-05-14T00:06:54.020Z,99.99
2018-05-14T00:07:54.049Z,99.99
2018-05-14T00:08:54.054Z,99.99
2018-05-14T00:09:54.077Z,99.99
2018-05-14T00:10:54.406Z,99.99
2018-05-14T00:11:54.221Z,99.99
2018-05-14T00:12:54.117Z,99.99
2018-05-14T00:13:54.120Z,99.99
2018-05-14T00:14:54.140Z,99.99
2018-05-14T00:15:54.426Z,99.99
2018-05-14T00:16:54.287Z,99.99
2018-05-14T00:17:54.185Z,99.99
2018-05-14T00:18:54.317Z,99.99
2018-05-14T00:19:54.208Z,99.99
2018-05-14T00:20:54.491Z,99.99
2018-05-14T00:21:54.230Z,99.99
2018-05-14T00:22:54.242Z,99.99
2018-05-14T00:23:54.255Z,99.99
2018-05-14T00:24:54.270Z,99.99
2018-05-14T00:25:54.512Z,99.99
2018-05-14T00:26:54.300Z,99.99
2018-05-14T00:27:54.439Z,99.99
2018-05-14T00:28:54.337Z,99.99
2018-05-14T00:29:54.346Z,99.99
2018-05-14T00:30:54.631Z,99.99
2018-05-14T00:31:54.366Z,99.99
2018-05-14T00:32:54.507Z,99.99
2018-05-14T00:33:54.409Z,99.99
2018-05-14T00:34:54.534Z,99.99
2018-05-14T00:35:54.456Z,99.99
2018-05-14T00:36:54.713Z,99.99
2018-05-14T00:37:54.578Z,99.99
2018-05-14T00:38:54.591Z,99.99
2018-05-14T00:39:54.478Z,99.99
2018-05-14T00:40:54.618Z,99.99
2018-05-14T00:41:54.734Z,99.99
2018-05-14T00:42:54.522Z,99.99
2018-05-14T00:43:54.530Z,99.99
2018-05-14T00:44:54.555Z,99.99
2018-05-14T00:45:54.688Z,99.99
2018-05-14T00:46:54.802Z,99.99
2018-05-14T00:47:54.585Z,99.99
2018-05-14T00:48:54.598Z,99.99
2018-05-14T00:49:54.742Z,99.99
2018-05-14T00:50:54.639Z,99.99
2018-05-14T00:51:54.919Z,99.99
2018-05-14T00:52:54.656Z,99.99
2018-05-14T00:53:54.797Z,99.99
2018-05-14T00:54:54.683Z,99.99
2018-05-14T00:55:54.822Z,99.99
2018-05-14T00:56:54.856Z,99.99
2018-05-14T00:57:54.849Z,99.99
2018-05-14T00:58:54.739Z,99.99
2018-05-14T00:59:54.778Z,99.99
2018-05-14T01:00:54.770Z,99.99
2018-05-14T01:01:54.927Z,99.99
2018-05-14T01:02:54.799Z,99.99
2018-05-14T01:03:54.932Z,99.99
2018-05-14T01:04:54.815Z,99.99
2018-05-14T01:05:54.958Z,99.99
2018-05-14T01:06:54.993Z,99.99
2018-05-14T01:07:54.866Z,99.99
2018-05-14T01:08:54.885Z,99.99
2018-05-14T01:09:54.897Z,99.99
2018-05-14T01:10:54.910Z,99.99
2018-05-14T01:11:55.070Z,99.99
2018-05-14T01:12:55.054Z,99.99
2018-05-14T01:13:54.938Z,99.99
2018-05-14T01:14:54.952Z,99.99
2018-05-14T01:15:54.970Z,99.99
2018-05-14T01:16:55.132Z,99.99
2018-05-14T01:17:55.001Z,99.99
2018-05-14T01:18:55.066Z,99.99
2018-05-14T01:19:55.021Z,99.99
2018-05-14T01:20:55.041Z,99.99
2018-05-14T01:21:55.151Z,99.99
2018-05-14T01:22:55.066Z,99.99
2018-05-14T01:23:55.071Z,99.99
2018-05-14T01:24:55.085Z,99.99
2018-05-14T01:25:55.113Z,99.99
2018-05-14T01:26:55.262Z,99.99
2018-05-14T01:27:55.253Z,99.99
2018-05-14T01:28:55.284Z,99.99
2018-05-14T01:29:55.160Z,99.99
2018-05-14T01:30:55.291Z,99.99
2018-05-14T01:31:55.192Z,99.99
2018-05-14T01:32:55.295Z,99.99
2018-05-14T01:33:55.213Z,99.99
2018-05-14T01:34:55.219Z,99.99
2018-05-14T01:35:55.240Z,99.99
2018-05-14T01:36:55.253Z,99.99
2018-05-14T01:37:55.358Z,99.99
2018-05-14T01:38:55.274Z,99.99
2018-05-14T01:39:55.412Z,99.99
2018-05-14T01:40:55.424Z,99.99
2018-05-14T01:41:55.325Z,99.99
2018-05-14T01:42:55.486Z,99.99
2018-05-14T01:43:55.469Z,99.99
2018-05-14T01:44:55.477Z,99.99
2018-05-14T01:45:55.384Z,99.99
2018-05-14T01:46:55.502Z,99.99
2018-05-14T01:47:55.490Z,99.99
2018-05-14T01:48:55.411Z,99.99
2018-05-14T01:49:55.422Z,99.99
2018-05-14T01:50:55.443Z,99.99
2018-05-14T01:51:55.443Z,99.99
2018-05-14T01:52:55.745Z,99.99
2018-05-14T01:53:55.596Z,99.99
2018-05-14T01:54:55.610Z,99.99
2018-05-14T01:55:55.494Z,99.99
2018-05-14T01:56:55.516Z,99.99
2018-05-14T01:57:55.623Z,99.99
2018-05-14T01:58:55.661Z,99.99
2018-05-14T01:59:55.673Z,99.99
2018-05-14T02:00:55.562Z,99.99
2018-05-14T02:01:55.583Z,99.99
2018-05-14T02:02:55.690Z,99.99
2018-05-14T02:03:55.608Z,99.99
2018-05-14T02:04:55.742Z,99.99
2018-05-14T02:05:55.757Z,99.99
2018-05-14T02:06:55.683Z,99.99
2018-05-14T02:07:55.778Z,99.99
2018-05-14T02:08:55.944Z,99.99
2018-05-14T02:09:55.677Z,99.99
2018-05-14T02:10:55.690Z,99.99
2018-05-14T02:11:55.703Z,99.99
2018-05-14T02:12:55.845Z,99.99
2018-05-14T02:13:55.960Z,99.99
2018-05-14T02:14:55.750Z,99.99
2018-05-14T02:15:55.756Z,99.99
2018-05-14T02:16:55.777Z,99.99
2018-05-14T02:17:55.911Z,99.99
2018-05-14T02:18:55.902Z,99.99
2018-05-14T02:19:55.809Z,99.99
2018-05-14T02:20:55.821Z,99.99
2018-05-14T02:21:55.846Z,99.99
2018-05-14T02:22:55.974Z,99.99
2018-05-14T02:23:56.023Z,99.99
2018-05-14T02:24:55.887Z,99.99
2018-05-14T02:25:56.012Z,99.99
2018-05-14T02:26:55.910Z,99.99
2018-05-14T02:27:55.916Z,99.99
2018-05-14T02:28:56.201Z,99.82
2018-05-14T02:29:56.064Z,99.99
2018-05-14T02:30:56.076Z,99.99
2018-05-14T02:31:56.095Z,99.99
2018-05-14T02:32:55.976Z,99.99
2018-05-14T02:33:56.216Z,99.99
2018-05-14T02:34:56.019Z,99.99
2018-05-14T02:35:56.143Z,99.96
2018-05-14T02:36:56.036Z,99.99
2018-05-14T02:37:56.170Z,99.99
2018-05-14T02:38:56.206Z,99.87
2018-05-14T02:39:56.073Z,99.68
2018-05-14T02:40:56.208Z,99.48
2018-05-14T02:41:56.229Z,99.91
2018-05-14T02:42:56.236Z,99.82
2018-05-14T02:43:56.271Z,99.91
2018-05-14T02:44:56.143Z,99.99
2018-05-14T02:45:56.164Z,99.63
2018-05-14T02:46:56.290Z,99.99
2018-05-14T02:47:56.187Z,99.99
2018-05-14T02:48:56.416Z,99.63
2018-05-14T02:49:56.213Z,99.73
2018-05-14T02:50:56.210Z,99.99
2018-05-14T02:51:56.245Z,99.91
2018-05-14T02:52:56.368Z,99.24
2018-05-14T02:53:56.403Z,99.91
2018-05-14T02:54:56.277Z,99.99
2018-05-14T02:55:56.281Z,99.91
2018-05-14T02:56:56.298Z,99.99
2018-05-14T02:57:56.541Z,99.34
2018-05-14T02:58:56.324Z,99.73
2018-05-14T02:59:56.442Z,99.73
2018-05-14T03:00:56.362Z,99.63
2018-05-14T03:01:56.490Z,99.99
2018-05-14T03:02:56.412Z,99.87
2018-05-14T03:03:56.397Z,99.68
2018-05-14T03:04:56.539Z,99.58
2018-05-14T03:05:56.519Z,99.87
2018-05-14T03:06:56.555Z,99.87
2018-05-14T03:07:56.442Z,99.77
2018-05-14T03:08:56.464Z,99.87
2018-05-14T03:09:56.598Z,99.77
2018-05-14T03:10:56.601Z,99.99
2018-05-14T03:11:56.623Z,99.96
2018-05-14T03:13:56.647Z,99.99
2018-05-14T03:14:56.658Z,99.87
2018-05-14T03:15:56.606Z,99.87
2018-05-14T03:16:56.686Z,99.49
2018-05-14T03:17:56.578Z,99.99
2018-05-14T03:18:56.713Z,99.96
2018-05-14T03:19:56.734Z,99.68
2018-05-14T03:20:56.716Z,99.77
2018-05-14T03:21:56.755Z,99.77
2018-05-14T03:22:56.775Z,99.87
2018-05-14T03:23:56.780Z,99.68
2018-05-14T03:24:56.801Z,99.77
2018-05-14T03:25:56.816Z,99.77
2018-05-14T03:26:56.754Z,99.91
2018-05-14T03:27:56.714Z,99.82
2018-05-14T03:28:56.729Z,99.73
2018-05-14T03:29:56.863Z,99.99
2018-05-14T03:30:56.879Z,99.99
2018-05-14T03:31:56.875Z,99.99
2018-05-14T03:32:56.789Z,99.99
2018-05-14T03:33:56.918Z,99.99
2018-05-14T03:34:56.808Z,99.99
2018-05-14T03:35:56.947Z,99.99
2018-05-14T03:36:56.936Z,99.99
2018-05-14T03:37:56.855Z,99.99
2018-05-14T03:38:56.990Z,99.99
2018-05-14T03:39:57.003Z,99.99
2018-05-14T03:40:57.012Z,99.99
2018-05-14T03:41:57.132Z,99.99
2018-05-14T03:42:57.039Z,99.96
2018-05-14T03:43:57.058Z,99.99
2018-05-14T03:44:56.938Z,99.99
2018-05-14T03:45:57.081Z,99.99
2018-05-14T03:46:57.248Z,99.73
2018-05-14T03:47:56.977Z,99.73
2018-05-14T03:48:57.122Z,99.91
2018-05-14T03:49:57.007Z,99.91
2018-05-14T03:50:57.028Z,99.82
2018-05-14T03:51:57.141Z,99.15
2018-05-14T03:52:57.172Z,99.34
2018-05-14T03:53:57.193Z,99.44
2018-05-14T03:54:57.078Z,99.73
2018-05-14T03:55:57.095Z,99.05
2018-05-14T03:56:57.333Z,99.44
2018-05-14T03:57:57.118Z,99.34
2018-05-14T03:58:57.260Z,99.73
2018-05-14T03:59:57.145Z,99.91
2018-05-14T04:00:57.157Z,99.73
2018-05-14T04:01:57.300Z,99.91
2018-05-14T04:02:57.288Z,99.73
2018-05-14T04:03:57.319Z,99.82
2018-05-14T04:04:57.340Z,99.82
2018-05-14T04:05:57.347Z,99.82
2018-05-14T04:06:57.234Z,99.82
2018-05-14T04:07:57.474Z,99.82
2018-05-14T04:08:57.258Z,99.73
2018-05-14T04:09:57.273Z,99.99
2018-05-14T04:10:57.416Z,99.99
2018-05-14T04:11:57.304Z,99.99
2018-05-14T04:12:57.598Z,99.99
2018-05-14T04:13:57.454Z,99.99
2018-05-14T04:14:57.349Z,99.99
2018-05-14T04:15:57.480Z,99.99
2018-05-14T04:16:57.494Z,99.99
2018-05-14T04:17:57.492Z,99.73
2018-05-14T04:18:57.399Z,99.99
2018-05-14T04:19:57.417Z,99.99
2018-05-14T04:20:57.430Z,99.99
2018-05-14T04:21:57.570Z,99.99
2018-05-14T04:22:57.574Z,99.91
2018-05-14T04:23:57.739Z,99.99
2018-05-14T04:24:57.477Z,99.99
2018-05-14T04:25:57.487Z,99.99
2018-05-14T04:26:57.502Z,99.99
2018-05-14T04:27:57.641Z,99.99
2018-05-14T04:28:57.683Z,99.99
2018-05-14T04:29:57.552Z,99.99
2018-05-14T04:30:57.560Z,99.99
2018-05-14T04:31:57.697Z,99.99
2018-05-14T04:32:57.586Z,99.99
2018-05-14T04:33:57.701Z,99.99
2018-05-14T04:34:57.744Z,99.99
2018-05-14T04:35:57.631Z,99.99
2018-05-14T04:36:57.768Z,99.99
2018-05-14T04:37:57.649Z,99.99
2018-05-14T04:38:57.892Z,99.99
2018-05-14T04:39:57.801Z,99.99
2018-05-14T04:40:57.822Z,99.99
2018-05-14T04:41:57.831Z,99.99
2018-05-14T04:42:57.724Z,99.99
2018-05-14T04:43:57.856Z,99.99
2018-05-14T04:44:57.972Z,99.99
2018-05-14T04:45:57.764Z,99.99
2018-05-14T04:46:57.900Z,99.99
2018-05-14T04:47:57.914Z,99.99
2018-05-14T04:48:57.923Z,99.99
2018-05-14T04:49:58.042Z,99.99
2018-05-14T04:50:57.825Z,99.99
2018-05-14T04:51:57.966Z,99.99
2018-05-14T04:52:57.852Z,99.99
2018-05-14T04:53:57.871Z,99.99
2018-05-14T04:54:58.056Z,99.99
2018-05-14T04:55:57.897Z,99.99
2018-05-14T04:56:57.905Z,99.99
2018-05-14T04:57:58.047Z,99.99
2018-05-14T04:58:58.059Z,99.99
2018-05-14T04:59:58.173Z,99.99
2018-05-14T05:00:58.080Z,99.99
2018-05-14T05:01:58.101Z,99.99
2018-05-14T05:02:58.107Z,99.99
2018-05-14T05:03:57.990Z,99.99
2018-05-14T05:04:58.236Z,99.99
2018-05-14T05:05:58.147Z,99.99
2018-05-14T05:06:58.166Z,99.99
2018-05-14T05:07:58.051Z,99.99
2018-05-14T05:08:58.185Z,99.99
2018-05-14T05:09:58.302Z,99.99
2018-05-14T05:10:58.211Z,99.99
2018-05-14T05:11:58.097Z,99.99
2018-05-14T05:12:58.115Z,99.99
2018-05-14T05:13:58.259Z,99.99
2018-05-14T05:14:58.242Z,99.99
2018-05-14T05:15:58.285Z,99.99
2018-05-14T05:16:58.292Z,99.99
2018-05-14T05:17:58.304Z,99.99
2018-05-14T05:18:58.192Z,99.99
2018-05-14T05:19:58.215Z,99.99
2018-05-14T05:20:58.326Z,99.99
2018-05-14T05:21:58.360Z,99.99
2018-05-14T05:22:58.249Z,99.99
2018-05-14T05:23:58.388Z,99.99
2018-05-14T05:24:58.397Z,99.99
2018-05-14T05:25:58.287Z,99.99
2018-05-14T05:26:58.527Z,99.99
2018-05-14T05:27:58.445Z,99.99
2018-05-14T05:28:58.451Z,99.99
2018-05-14T05:29:58.472Z,99.99
2018-05-14T05:30:58.477Z,99.99
2018-05-14T05:31:58.461Z,99.99
2018-05-14T05:32:58.387Z,99.99
2018-05-14T05:33:58.522Z,99.99
2018-05-14T05:34:58.536Z,99.99
2018-05-14T05:35:58.427Z,99.99
2018-05-14T05:36:58.658Z,99.99
2018-05-14T05:37:58.583Z,99.99
2018-05-14T05:38:58.459Z,99.99
2018-05-14T05:39:58.595Z,99.99
2018-05-14T05:40:58.491Z,99.99
2018-05-14T05:41:58.729Z,99.99
2018-05-14T05:42:58.634Z,99.99
2018-05-14T05:43:58.654Z,99.99
2018-05-14T05:44:58.668Z,99.99
2018-05-14T05:45:58.673Z,99.99
2018-05-14T05:46:58.564Z,99.99
2018-05-14T05:47:58.682Z,99.99
2018-05-14T05:48:58.592Z,99.99
2018-05-14T05:49:58.731Z,99.99
2018-05-14T05:50:58.737Z,99.99
2018-05-14T05:51:58.760Z,99.99
2018-05-14T05:52:58.866Z,99.99
2018-05-14T05:53:58.778Z,99.99
2018-05-14T05:54:58.671Z,99.99
2018-05-14T05:55:58.679Z,99.99
2018-05-14T05:56:58.692Z,99.99
2018-05-14T05:57:58.937Z,99.99
2018-05-14T05:58:58.722Z,99.99
2018-05-14T05:59:58.852Z,99.99
2018-05-14T06:00:58.742Z,99.99
2018-05-14T06:01:58.883Z,99.99
2018-05-14T06:02:58.866Z,99.99
2018-05-14T06:03:58.907Z,99.99
2018-05-14T06:04:58.914Z,99.99
2018-05-14T06:05:58.934Z,99.99
2018-05-14T06:06:58.817Z,99.99
2018-05-14T06:07:58.952Z,99.99
2018-05-14T06:08:59.070Z,99.99
2018-05-14T06:09:58.860Z,99.99
2018-05-14T06:10:58.867Z,99.99
2018-05-14T06:11:59.007Z,99.99
2018-05-14T06:12:58.887Z,99.99
2018-05-14T06:13:59.006Z,99.99
2018-05-14T06:14:59.044Z,99.99
2018-05-14T06:15:59.051Z,99.99
2018-05-14T06:16:59.065Z,99.99
2018-05-14T06:17:59.079Z,99.99
2018-05-14T06:18:59.188Z,99.99
2018-05-14T06:19:58.983Z,99.99
2018-05-14T06:20:59.112Z,99.99
2018-05-14T06:21:59.126Z,99.99
2018-05-14T06:22:59.144Z,99.99
2018-05-14T06:23:59.127Z,99.99
2018-05-14T06:24:59.040Z,99.99
2018-05-14T06:25:59.188Z,99.99
2018-05-14T06:26:59.065Z,99.99
2018-05-14T06:27:59.200Z,99.99
2018-05-14T06:28:59.314Z,99.99
2018-05-14T06:29:59.225Z,99.99
2018-05-14T06:30:59.113Z,99.99
2018-05-14T06:31:59.254Z,99.99
2018-05-14T06:32:59.143Z,99.99
2018-05-14T06:33:59.373Z,99.99
2018-05-14T06:34:59.285Z,99.99
2018-05-14T06:35:59.303Z,99.99
2018-05-14T06:36:59.186Z,99.99
2018-05-14T06:37:59.196Z,99.99
2018-05-14T06:38:59.443Z,99.99
2018-05-14T06:39:59.354Z,99.99
2018-05-14T06:40:59.233Z,99.99
2018-05-14T06:41:59.251Z,99.99
2018-05-14T06:42:59.385Z,99.99
2018-05-14T06:44:11.048Z,99.99
2018-05-14T06:44:59.418Z,99.99
2018-05-14T06:45:59.298Z,99.81
2018-05-14T06:46:59.434Z,99.99
2018-05-14T06:47:59.322Z,99.99
2018-05-14T06:48:59.463Z,99.99
2018-05-14T06:49:59.486Z,99.99
2018-05-14T06:50:59.487Z,99.99
2018-05-14T06:51:59.370Z,99.99
2018-05-14T06:52:59.387Z,99.99
2018-05-14T06:53:59.526Z,99.99
2018-05-14T06:54:59.513Z,99.99
2018-05-14T06:55:59.425Z,99.99
2018-05-14T06:56:59.554Z,99.99
2018-05-14T06:57:59.566Z,99.99
2018-05-14T06:58:59.462Z,99.99
2018-05-14T06:59:59.575Z,99.99
2018-05-14T07:00:59.603Z,99.99
2018-05-14T07:01:59.617Z,99.72
2018-05-14T07:02:59.630Z,99.99
2018-05-14T07:03:59.648Z,99.99
2018-05-14T07:04:59.629Z,99.99
2018-05-14T07:05:59.672Z,99.81
2018-05-14T07:06:59.549Z,99.24
2018-05-14T07:07:59.696Z,99.43
2018-05-14T07:08:59.580Z,99.52
2018-05-14T07:09:59.814Z,99.15
2018-05-14T07:10:59.731Z,99.15
2018-05-14T07:11:59.738Z,99.43
2018-05-14T07:12:59.750Z,99.52
2018-05-14T07:13:59.768Z,99.52
2018-05-14T07:14:59.876Z,99.58
2018-05-14T07:15:59.671Z,98.71
2018-05-14T07:16:59.808Z,99.00
2018-05-14T07:17:59.693Z,99.48
2018-05-14T07:18:59.830Z,98.52
2018-05-14T07:19:59.947Z,99.29
2018-05-14T07:20:59.852Z,98.81
2018-05-14T07:21:59.867Z,98.71
2018-05-14T07:22:59.879Z,98.91
2018-05-14T07:23:59.774Z,98.91
2018-05-14T07:25:00.007Z,98.96
2018-05-14T07:25:59.934Z,98.62
2018-05-14T07:26:59.929Z,98.96
2018-05-14T07:27:59.950Z,98.86
2018-05-14T07:28:59.954Z,98.96
2018-05-14T07:29:59.943Z,98.96
2018-05-14T07:30:59.986Z,99.34
2018-05-14T07:31:59.869Z,98.96
2018-05-14T07:32:59.887Z,99.10
2018-05-14T07:34:00.295Z,98.38
2018-05-14T07:35:00.257Z,98.81
2018-05-14T07:36:00.129Z,98.91
2018-05-14T07:37:00.126Z,98.96
2018-05-14T07:38:00.118Z,99.05
2018-05-14T07:39:00.195Z,98.52
2018-05-14T07:40:00.206Z,99.15
2018-05-14T07:41:00.178Z,99.19
2018-05-14T07:42:00.121Z,98.71
2018-05-14T07:43:00.167Z,99.05
2018-05-14T07:44:00.166Z,99.15
2018-05-14T07:45:00.136Z,99.34
2018-05-14T07:46:00.193Z,98.47
2018-05-14T07:47:00.062Z,98.67
2018-05-14T07:48:00.206Z,99.15
2018-05-14T07:49:00.088Z,98.67
2018-05-14T07:50:00.329Z,98.96
2018-05-14T07:51:00.110Z,98.96
2018-05-14T07:52:00.131Z,98.57
2018-05-14T07:53:00.263Z,98.38
2018-05-14T07:54:00.288Z,98.96
2018-05-14T07:55:00.264Z,98.57
2018-05-14T07:56:00.307Z,99.15
2018-05-14T07:57:00.320Z,99.15
2018-05-14T07:58:00.333Z,98.96
2018-05-14T07:59:00.218Z,98.62
2018-05-14T08:00:00.558Z,98.62
2018-05-14T08:01:00.365Z,98.62
2018-05-14T08:02:00.384Z,98.91
2018-05-14T08:03:00.390Z,99.00
2018-05-14T08:04:00.282Z,98.62
2018-05-14T08:05:00.292Z,99.19
2018-05-14T08:06:00.540Z,99.10
2018-05-14T08:07:00.442Z,98.91
2018-05-14T08:08:00.455Z,99.10
2018-05-14T08:09:00.475Z,99.19
2018-05-14T08:10:00.358Z,99.00
2018-05-14T08:11:00.607Z,99.19
2018-05-14T08:12:00.512Z,99.00
2018-05-14T08:13:00.521Z,98.91
2018-05-14T08:14:00.534Z,99.10
2018-05-14T08:15:00.426Z,99.00
2018-05-14T08:16:00.659Z,99.05
2018-05-14T08:17:00.573Z,98.86
2018-05-14T08:18:00.462Z,98.86
2018-05-14T08:19:00.604Z,98.86
2018-05-14T08:20:00.490Z,98.76
2018-05-14T08:21:00.722Z,99.33
2018-05-14T08:22:00.640Z,98.66
2018-05-14T08:23:00.647Z,99.33
2018-05-14T08:24:00.661Z,99.24
2018-05-14T08:25:00.675Z,98.86
2018-05-14T08:26:00.662Z,98.95
2018-05-14T08:27:00.703Z,98.86
2018-05-14T08:28:00.710Z,99.43
2018-05-14T08:29:00.723Z,98.86
2018-05-14T08:30:00.736Z,99.19
2018-05-14T08:31:00.847Z,99.52
2018-05-14T08:32:00.765Z,98.90
2018-05-14T08:33:00.779Z,99.29
2018-05-14T08:34:00.785Z,99.29
2018-05-14T08:35:00.809Z,99.57
2018-05-14T08:36:00.912Z,99.86
2018-05-14T08:37:00.909Z,99.00
2018-05-14T08:38:00.843Z,99.57
2018-05-14T08:39:00.847Z,99.38
2018-05-14T08:40:00.869Z,99.48
2018-05-14T08:41:00.972Z,99.48
2018-05-14T08:42:00.891Z,99.48
2018-05-14T08:43:00.904Z,99.38
2018-05-14T08:44:00.916Z,99.29
2018-05-14T08:45:00.921Z,99.29
2018-05-14T08:46:00.916Z,99.67
2018-05-14T08:47:00.828Z,99.48
2018-05-14T08:48:00.937Z,99.57
2018-05-14T08:49:00.971Z,99.67
2018-05-14T08:50:00.985Z,99.29
2018-05-14T08:51:01.097Z,99.29
2018-05-14T08:52:01.008Z,99.67
2018-05-14T08:53:01.029Z,99.48
2018-05-14T08:54:00.909Z,99.29
2018-05-14T08:55:01.052Z,99.86
2018-05-14T08:56:01.157Z,99.57
2018-05-14T08:57:00.953Z,99.57
2018-05-14T08:58:01.084Z,99.48
2018-05-14T08:59:00.974Z,99.48
2018-05-14T09:00:01.178Z,99.52
2018-05-14T09:01:01.218Z,99.62
2018-05-14T09:02:01.132Z,99.38
2018-05-14T09:03:01.144Z,99.52
2018-05-14T09:04:01.032Z,99.43
2018-05-14T09:05:01.044Z,99.24
2018-05-14T09:06:01.285Z,99.24
2018-05-14T09:07:01.069Z,99.33
2018-05-14T09:08:01.204Z,99.24
2018-05-14T09:09:01.216Z,99.81
2018-05-14T09:10:01.114Z,99.24
2018-05-14T09:11:01.220Z,99.43
2018-05-14T09:12:01.131Z,99.24
2018-05-14T09:13:01.266Z,99.99
2018-05-14T09:14:01.285Z,99.81
2018-05-14T09:15:01.300Z,99.81
2018-05-14T09:16:01.287Z,99.71
2018-05-14T09:17:01.193Z,99.71
2018-05-14T09:18:01.328Z,99.62
2018-05-14T09:19:01.211Z,99.33
2018-05-14T09:20:01.350Z,99.81
2018-05-14T09:21:01.516Z,99.43
2018-05-14T09:22:01.383Z,99.52
2018-05-14T09:23:01.393Z,99.71
2018-05-14T09:24:01.280Z,99.81
2018-05-14T09:25:01.293Z,99.71
2018-05-14T09:26:01.424Z,99.62
2018-05-14T09:27:01.536Z,99.62
2018-05-14T09:28:01.320Z,99.71
2018-05-14T09:29:01.337Z,99.62
2018-05-14T09:30:01.471Z,99.43
2018-05-14T09:31:01.485Z,99.52
2018-05-14T09:32:01.646Z,99.99
2018-05-14T09:33:01.508Z,99.43
2018-05-14T09:34:01.523Z,99.99
2018-05-14T09:35:01.421Z,99.14
2018-05-14T09:36:01.548Z,99.99
2018-05-14T09:37:01.655Z,99.81
2018-05-14T09:38:01.569Z,99.99
2018-05-14T09:39:01.580Z,99.33
2018-05-14T09:40:01.596Z,99.99
2018-05-14T09:41:01.606Z,99.99
2018-05-14T09:42:01.596Z,99.62
2018-05-14T09:43:01.633Z,99.62
2018-05-14T09:44:01.517Z,99.90
2018-05-14T09:45:01.660Z,99.99
2018-05-14T09:46:01.542Z,99.99
2018-05-14T09:47:01.685Z,99.43
2018-05-14T09:48:01.790Z,99.43
2018-05-14T09:49:01.588Z,99.52
2018-05-14T09:50:01.603Z,99.90
2018-05-14T09:51:01.724Z,99.99
2018-05-14T09:52:01.616Z,99.99
2018-05-14T09:53:01.757Z,99.52
2018-05-14T09:54:01.741Z,99.99
2018-05-14T09:55:01.776Z,99.99
2018-05-14T09:56:01.788Z,99.99
2018-05-14T09:57:01.680Z,99.57
2018-05-14T09:58:01.812Z,99.99
2018-05-14T09:59:01.799Z,99.99
2018-05-14T10:00:01.836Z,99.81
2018-05-14T10:01:01.853Z,99.99
2018-05-14T10:02:01.860Z,99.52
2018-05-14T10:03:01.878Z,99.81
2018-05-14T10:04:01.991Z,99.29
2018-05-14T10:05:01.785Z,99.38
2018-05-14T10:06:01.911Z,99.58
2018-05-14T10:07:01.924Z,98.62
2018-05-14T10:08:01.942Z,98.96
2018-05-14T10:09:02.049Z,99.15
2018-05-14T10:10:01.971Z,98.86
2018-05-14T10:11:01.978Z,99.05
2018-05-14T10:12:01.990Z,99.19
2018-05-14T10:13:02.075Z,99.19
2018-05-14T10:14:02.121Z,99.10
2018-05-14T10:15:01.914Z,98.77
2018-05-14T10:16:01.916Z,98.10
2018-05-14T10:17:02.057Z,98.96
2018-05-14T10:18:02.072Z,98.14
2018-05-14T10:19:02.067Z,98.72
2018-05-14T10:20:02.098Z,98.82
2018-05-14T10:21:02.120Z,98.05
2018-05-14T10:22:02.128Z,98.00
2018-05-14T10:23:02.148Z,98.38
2018-05-14T10:24:02.190Z,98.29
2018-05-14T10:25:02.051Z,97.57
2018-05-14T10:26:02.188Z,98.34
2018-05-14T10:27:02.201Z,97.76
2018-05-14T10:28:02.089Z,97.66
2018-05-14T10:29:02.329Z,98.05
2018-05-14T10:30:02.251Z,97.66
2018-05-14T10:31:02.261Z,97.86
2018-05-14T10:32:02.191Z,97.19
2018-05-14T10:33:02.177Z,96.99
2018-05-14T10:34:02.406Z,97.28
2018-05-14T10:35:02.196Z,97.19
2018-05-14T10:36:02.342Z,96.66
2018-05-14T10:37:02.351Z,97.81
2018-05-14T10:38:02.272Z,97.71
2018-05-14T10:39:02.361Z,97.33
2018-05-14T10:40:02.397Z,97.66
2018-05-14T10:41:02.410Z,97.76
2018-05-14T10:42:02.306Z,97.76
2018-05-14T10:43:02.442Z,98.33
2018-05-14T10:44:02.485Z,98.33
2018-05-14T10:45:02.469Z,97.76
2018-05-14T10:46:02.487Z,97.86
2018-05-14T10:47:02.390Z,97.33
2018-05-14T10:48:02.390Z,98.19
2018-05-14T10:49:02.636Z,97.81
2018-05-14T10:50:02.420Z,98.00
2018-05-14T10:51:02.559Z,98.00
2018-05-14T10:52:02.454Z,97.52
2018-05-14T10:53:02.587Z,97.42
2018-05-14T10:54:02.707Z,97.71
2018-05-14T10:55:02.617Z,97.42
2018-05-14T10:56:02.630Z,97.81
2018-05-14T10:57:02.655Z,97.33
2018-05-14T10:58:02.659Z,97.57
2018-05-14T10:59:02.642Z,97.66
2018-05-14T11:00:02.564Z,96.99
2018-05-14T11:01:02.585Z,96.89
2018-05-14T11:02:02.729Z,97.86
2018-05-14T11:03:02.731Z,97.66
2018-05-14T11:04:02.822Z,97.86
2018-05-14T11:05:02.766Z,97.19
2018-05-14T11:06:02.775Z,97.38
2018-05-14T11:07:02.796Z,97.14
2018-05-14T11:08:02.805Z,96.75
2018-05-14T11:09:02.919Z,96.75
2018-05-14T11:10:02.841Z,96.66
2018-05-14T11:11:02.727Z,96.47
2018-05-14T11:12:02.872Z,96.37
2018-05-14T11:13:02.768Z,96.27
2018-05-14T11:14:02.885Z,96.37
2018-05-14T11:15:02.909Z,96.27
2018-05-14T11:16:02.804Z,95.79
2018-05-14T11:17:02.939Z,95.79
2018-05-14T11:18:02.959Z,96.27
2018-05-14T11:19:02.945Z,96.03
2018-05-14T11:20:02.986Z,96.03
2018-05-14T11:21:03.003Z,95.36
2018-05-14T11:22:03.019Z,96.22
2018-05-14T11:23:02.902Z,95.45
2018-05-14T11:24:03.142Z,95.75
2018-05-14T11:25:03.056Z,95.45
2018-05-14T11:26:03.071Z,95.26
2018-05-14T11:27:02.965Z,95.31
2018-05-14T11:28:02.984Z,94.73
2018-05-14T11:29:03.101Z,94.54
2018-05-14T11:30:03.134Z,94.54
2018-05-14T11:31:03.031Z,94.59
2018-05-14T11:32:03.040Z,94.40
2018-05-14T11:33:03.184Z,94.68
2018-05-14T11:34:03.171Z,94.44
2018-05-14T11:35:03.208Z,94.54
2018-05-14T11:36:03.232Z,94.01
2018-05-14T11:37:03.243Z,92.56
2018-05-14T11:38:03.260Z,91.69
2018-05-14T11:39:03.201Z,91.99
2018-05-14T11:40:03.180Z,91.45
2018-05-14T11:41:03.309Z,91.64
2018-05-14T11:42:03.327Z,92.03
2018-05-14T11:43:03.212Z,90.97
2018-05-14T11:44:03.464Z,89.81
2018-05-14T11:45:03.371Z,90.00
2018-05-14T11:46:03.262Z,89.86
2018-05-14T11:47:03.271Z,89.77
2018-05-14T11:48:03.293Z,89.67
2018-05-14T11:49:03.540Z,90.54
2018-05-14T11:50:03.322Z,90.69
2018-05-14T11:51:03.470Z,90.64
2018-05-14T11:52:03.354Z,90.78
2018-05-14T11:53:03.380Z,90.50
2018-05-14T11:54:03.617Z,90.69
2018-05-14T11:55:03.405Z,90.50
2018-05-14T11:56:03.416Z,90.97
2018-05-14T11:57:03.563Z,90.92
2018-05-14T11:58:03.579Z,90.34
2018-05-14T11:59:03.700Z,90.73
2018-05-14T12:00:03.613Z,90.44
2018-05-14T12:01:03.504Z,89.67
2018-05-14T12:02:03.647Z,89.67
2018-05-14T12:03:03.597Z,88.95
2018-05-14T12:04:03.658Z,88.41
2018-05-14T12:05:03.576Z,87.93
2018-05-14T12:06:03.714Z,87.54
2018-05-14T12:07:03.605Z,87.93
2018-05-14T12:08:03.626Z,87.68
2018-05-14T12:09:03.739Z,87.88
2018-05-14T12:10:03.790Z,87.40
2018-05-14T12:11:03.676Z,85.60
2018-05-14T12:12:03.871Z,85.12
2018-05-14T12:13:03.837Z,84.00
2018-05-14T12:14:03.949Z,83.81
2018-05-14T12:15:03.871Z,83.58
2018-05-14T12:16:03.897Z,83.77
2018-05-14T12:17:03.785Z,84.54
2018-05-14T12:18:03.903Z,84.16
2018-05-14T12:19:04.037Z,84.44
2018-05-14T12:20:03.954Z,84.44
2018-05-14T12:21:03.972Z,84.88
2018-05-14T12:22:03.991Z,84.78
2018-05-14T12:23:04.013Z,84.39
2018-05-14T12:24:04.102Z,82.98
2018-05-14T12:25:04.044Z,83.18
2018-05-14T12:26:04.065Z,82.02
2018-05-14T12:27:04.083Z,82.21
2018-05-14T12:28:03.975Z,82.31
2018-05-14T12:29:04.269Z,82.35
2018-05-14T12:30:04.007Z,82.06
2018-05-14T12:31:04.152Z,80.74
2018-05-14T12:32:04.189Z,80.16
2018-05-14T12:33:04.060Z,78.85
2018-05-14T12:34:04.310Z,79.14
2018-05-14T12:35:04.096Z,79.00
2018-05-14T12:36:04.241Z,80.03
2018-05-14T12:37:04.261Z,79.97
2018-05-14T12:38:04.286Z,80.51
2018-05-14T12:39:04.272Z,80.12
2018-05-14T12:40:04.191Z,81.48
2018-05-14T12:41:04.334Z,80.66
2018-05-14T12:42:04.363Z,81.63
2018-05-14T12:43:04.369Z,81.82
2018-05-14T12:44:04.408Z,81.82
2018-05-14T12:45:04.511Z,81.53
2018-05-14T12:46:04.525Z,81.63
2018-05-14T12:47:04.448Z,82.11
2018-05-14T12:48:04.460Z,81.92
2018-05-14T12:49:04.362Z,81.19
2018-05-14T12:50:04.604Z,81.19
2018-05-14T12:51:04.399Z,79.93
2018-05-14T12:53:04.554Z,79.54
2018-05-14T12:54:04.451Z,79.83
2018-05-14T12:55:04.645Z,79.35